Flight Track Log - Related Links

Times and Time Zones

All times are in EDT time to prevent confusion due to time zone crossing. See the UPS1337 flight status page for this flight to view local times or setup timezone preferences in your user account.

Time Position Orientation Groundspeed Altitude Reporting Facility
EDT Latitude Longitude Course Direction KTS MPH feet Rate Location/Type
Thu 09:51:04 PM 27.9333 -82.7000 41° Northeast 165 190 1,100  Level Tampa TRACON
Thu 09:51:46 PM 27.9500 -82.6833 41° Northeast 170 196 3,000 2,594 Climbing Tampa TRACON
Thu 09:55:30 PM 28.2292 -82.7394 350° North 332 382 12,600 2,631 Climbing Jacksonville Center
Thu 09:58:57 PM 28.6051 -82.8042 354° North 414 476 21,900 2,095 Climbing FlightAware ADS-B
Thu 10:02:51 PM 29.0733 -82.8579 355° North 439 505 28,000 1,575 Climbing FlightAware ADS-B
Thu 10:04:55 PM 29.3225 -82.8769 354° North 431 496 31,300 1,531 Climbing FlightAware ADS-B
Thu 10:05:16 PM 29.3676 -82.8870 343° North 419 482 31,700 905 Climbing FlightAware ADS-B
Thu 10:07:54 PM 29.6683 -82.9914 343° North 432 497 34,000 711 Climbing FlightAware ADS-B
Thu 10:08:30 PM 29.7194 -83.0122 343° North 434 499 34,000  Level Jacksonville Center
Thu 10:09:30 PM 29.8342 -83.0506 344° North 434 499 34,000  Level Jacksonville Center
Thu 10:10:30 PM 29.9489 -83.0917 343° North 429 494 34,000  Level Jacksonville Center
Thu 10:11:30 PM 30.0742 -83.1350 343° North 429 494 34,000  Level Jacksonville Center
Thu 10:12:30 PM 30.1931 -83.1761 343° North 429 494 34,000 -50 Level Jacksonville Center
Thu 10:13:30 PM 30.3078 -83.2175 343° North 429 494 33,900 -50 Descending Jacksonville Center
Thu 10:14:30 PM 30.4225 -83.2564 344° North 429 494 33,900 16 Level Jacksonville Center
Thu 10:19:55 PM 31.0534 -83.4814 343° North 425 489 34,000 14 Climbing FlightAware ADS-B (KONZ)
Thu 10:21:26 PM 31.2085 -83.5373 343° North 421 484 34,000  Level FlightAware ADS-B (KONZ)
Thu 10:22:10 PM 31.2969 -83.5722 343° North 426 490 34,000  Level Atlanta Center
Thu 10:23:10 PM 31.4056 -83.6106 343° North 415 478 34,000  Level Atlanta Center
Thu 10:24:10 PM 31.5164 -83.6517 342° North 415 478 34,000  Level Atlanta Center
Thu 10:25:10 PM 31.6106 -83.6781 347° North 410 472 34,000  Level Atlanta Center
Thu 10:26:10 PM 31.7336 -83.6969 353° North 415 478 34,000  Level Atlanta Center
Thu 10:27:10 PM 31.8547 -83.7233 350° North 423 487 34,000  Level Atlanta Center
Thu 10:28:10 PM 31.9694 -83.7450 351° North 423 487 34,000  Level Atlanta Center
Thu 10:29:10 PM 32.0822 -83.7667 351° North 423 487 34,000  Level Atlanta Center
Thu 10:30:10 PM 32.1950 -83.7908 350° North 418 481 34,000  Level Atlanta Center
Thu 10:31:10 PM 32.3078 -83.8128 351° North 413 475 34,000  Level Atlanta Center
Thu 10:32:10 PM 32.4228 -83.8369 350° North 413 475 34,000  Level Atlanta Center
Thu 10:33:10 PM 32.5397 -83.8614 350° North 413 475 34,000  Level Atlanta Center
Thu 10:34:10 PM 32.6525 -83.8833 351° North 413 475 34,000  Level Atlanta Center
Thu 10:35:10 PM 32.7672 -83.9056 351° North 413 475 34,000  Level Atlanta Center
Thu 10:36:10 PM 32.8819 -83.9275 351° North 413 475 34,000  Level Atlanta Center
Thu 10:37:10 PM 32.9928 -83.9522 349° North 413 475 34,000  Level Atlanta Center
Thu 10:38:10 PM 33.1158 -83.9817 349° North 413 475 34,000  Level Atlanta Center
Thu 10:39:10 PM 33.2306 -84.0017 352° North 413 475 34,000  Level Atlanta Center
Thu 10:40:10 PM 33.3456 -84.0264 350° North 407 468 34,000  Level Atlanta Center
Thu 10:41:10 PM 33.4583 -84.0489 351° North 412 474 34,000  Level Atlanta Center
Thu 10:46:47 PM 34.1326 -84.1838 350° North 405 466 34,000  Level FlightAware ADS-B (KDZJ)
Thu 10:47:28 PM 34.2098 -84.1999 350° North 406 467 34,000  Level FlightAware ADS-B (KDZJ)
Thu 10:48:07 PM 34.2848 -84.2155 350° North 408 470 34,000  Level FlightAware ADS-B (KDZJ)
Thu 10:48:48 PM 34.3624 -84.2319 350° North 410 472 34,000  Level FlightAware ADS-B (KDZJ)
Thu 10:49:27 PM 34.4378 -84.2478 350° North 412 474 34,000  Level FlightAware ADS-B (KDZJ)
Thu 10:50:08 PM 34.5165 -84.2645 350° North 412 474 34,000  Level FlightAware ADS-B (KDZJ)
Thu 10:50:46 PM 34.5897 -84.2795 351° North 421 484 34,000  Level FlightAware ADS-B (KDZJ)
Thu 10:51:28 PM 34.6698 -84.2962 350° North 412 474 34,000  Level FlightAware ADS-B (KDZJ)
Thu 10:52:07 PM 34.7445 -84.3125 350° North 412 474 34,000  Level FlightAware ADS-B (KDZJ)
Thu 10:52:47 PM 34.8214 -84.3291 350° North 412 474 34,000  Level FlightAware ADS-B (KDZJ)
Thu 10:53:28 PM 34.8984 -84.3454 350° North 412 474 34,000  Level FlightAware ADS-B (KDZJ)
Thu 10:54:07 PM 34.9746 -84.3614 350° North 411 473 34,000  Level FlightAware ADS-B (KDZJ)
Thu 10:54:47 PM 35.0503 -84.3777 350° North 410 472 34,000  Level FlightAware ADS-B (KDZJ)
Thu 10:55:27 PM 35.1275 -84.3939 350° North 411 473 34,000  Level FlightAware ADS-B (KDZJ)
Thu 10:56:08 PM 35.2046 -84.4105 350° North 410 472 34,000  Level FlightAware ADS-B (KDZJ)
Thu 10:56:47 PM 35.2804 -84.4264 350° North 410 472 34,000  Level FlightAware ADS-B (KDZJ)
Thu 10:57:28 PM 35.3578 -84.4436 350° North 410 472 34,000  Level FlightAware ADS-B (KDZJ)
Thu 10:58:08 PM 35.4337 -84.4603 350° North 411 473 34,000  Level FlightAware ADS-B (KDZJ)
Thu 10:58:42 PM 35.4583 -84.4639 350° North 368 423 34,000  Level Indianapolis Center
Thu 10:59:43 PM 35.5611 -84.4878 349° North 424 488 34,000  Level Indianapolis Center
Thu 11:00:44 PM 35.6978 -84.5175 350° North 421 484 34,000 -49 Level Indianapolis Center
Thu 11:01:46 PM 35.8114 -84.5428 350° North 421 484 33,900 -593 Descending Indianapolis Center
Thu 11:07:29 PM 36.4303 -84.6779 350° North 419 482 30,000 -581 Descending FlightAware ADS-B
Thu 11:08:29 PM 36.5959 -84.7145 350° North 420 483 30,000 -101 Level FlightAware ADS-B
Thu 11:09:28 PM 36.7046 -84.7388 350° North 421 484 29,800 -672 Descending FlightAware ADS-B
Thu 11:10:34 PM 36.7900 -84.7582 350° North 411 473 28,600 -1,233 Descending FlightAware ADS-B
Thu 11:11:54 PM 36.9775 -84.8001 350° North 395 455 26,800 -1,911 Descending FlightAware ADS-B
Thu 11:13:11 PM 37.1235 -84.8333 350° North 423 487 23,600 -2,610 Descending FlightAware ADS-B
Thu 11:14:28 PM 37.2712 -84.8660 350° North 415 478 20,100 -2,803 Descending FlightAware ADS-B
Thu 11:15:28 PM 37.3818 -84.8908 350° North 397 457 17,200 -2,900 Descending FlightAware ADS-B
Thu 11:16:28 PM 37.4885 -84.9148 350° North 378 435 14,300 -2,258 Descending FlightAware ADS-B
Thu 11:18:26 PM 37.6712 -84.9755 315° West 301 346 10,500 -1,500 Descending FlightAware ADS-B
Thu 11:19:28 PM 37.7271 -85.0517 312° West 300 345 9,800 -344 Descending FlightAware ADS-B
Thu 11:20:28 PM 37.7851 -85.1326 312° West 302 348 9,800  Level FlightAware ADS-B
Thu 11:21:28 PM 37.8406 -85.2098 312° West 302 348 9,800  Level FlightAware ADS-B
Thu 11:22:29 PM 37.8963 -85.2884 298° West 278 320 9,800 -557 Level FlightAware ADS-B
Thu 11:23:48 PM 37.9383 -85.3997 295° West 250 288 8,500 -1,209 Descending FlightAware ADS-B
Thu 11:24:48 PM 37.9686 -85.4783 296° West 244 281 7,000 -1,600 Descending FlightAware ADS-B
Thu 11:25:03 PM 37.9762 -85.4977 297° West 246 283 6,500 -1,100 Descending FlightAware ADS-B (KIXA)
Thu 11:25:48 PM 37.9986 -85.5552 296° West 241 277 5,900 -532 Descending FlightAware ADS-B
Thu 11:26:22 PM 38.0159 -85.5996 297° West 243 280 5,800 -100 Descending FlightAware ADS-B (KIXA)
Thu 11:26:48 PM 38.0318 -85.6291 308° West 245 282 5,800  Level FlightAware ADS-B
Thu 11:27:47 PM 38.0736 -85.6972 308° West 243 280 5,800  Level FlightAware ADS-B
Thu 11:28:47 PM 38.1134 -85.7631 307° West 243 280 5,800  Level FlightAware ADS-B
Thu 11:29:44 PM 38.1532 -85.8289 311° West 243 280 5,800  Level FlightAware ADS-B
Thu 11:30:46 PM 38.1980 -85.8582 341° North 216 249 5,800 -650 Level FlightAware ADS-B
Thu 11:31:44 PM 38.2657 -85.8874 342° North 214 246 4,500 -1,317 Descending FlightAware ADS-B
Thu 11:32:08 PM 38.2884 -85.8967 343° North 215 247 4,000 -1,000 Descending FlightAware ADS-B
Thu 11:32:32 PM 38.3060 -85.9027 353° North 221 254 3,700 -1,174 Descending FlightAware ADS-B
Thu 11:32:54 PM 38.3355 -85.9071 354° North 229 264 3,100 -1,412 Descending FlightAware ADS-B
Thu 11:33:06 PM 38.3477 -85.9079 North 236 272 2,900 -720 Descending FlightAware ADS-B
Thu 11:33:19 PM 38.3612 -85.9022 31° Northeast 237 273 2,800  Descending FlightAware ADS-B
Thu 11:33:32 PM 38.3702 -85.8894 57° Northeast 225 259 2,900 261 Climbing FlightAware ADS-B
Thu 11:33:42 PM 38.3738 -85.8775 73° East 212 244 2,900 -171 Level FlightAware ADS-B
Thu 11:34:07 PM 38.3745 -85.8479 116° Southeast 181 208 2,800 -122 Descending FlightAware ADS-B
Thu 11:34:31 PM 38.3641 -85.8287 126° Southeast 169 194 2,800  Level FlightAware ADS-B
Thu 11:34:46 PM 38.3562 -85.8168 135° Southeast 163 188 2,800  Level FlightAware ADS-B
Thu 11:35:20 PM 38.3405 -85.8005 151° Southeast 153 176 2,800  Level FlightAware ADS-B
Thu 11:36:32 PM 38.2958 -85.7844 151° Southeast 155 178 2,800 -90 Level Indianapolis Center
Thu 11:37:33 PM 38.2581 -85.7728 166° South 152 175 2,600 -628 Descending Indianapolis Center
Thu 11:39:24 PM 38.2000 -85.7500 163° South 114 131 1,000 -865 Descending Louisville TRACON

Login

Don't have an account? Register now (free) for customized features, flight alerts, and more!